sensor_id;sensor_type;location;lat;lon;timestamp;temperature;humidity
1766;DHT22;880;52.452;8.656;2023-08-08T00:02:19;13.30;99.90
1766;DHT22;880;52.452;8.656;2023-08-08T00:04:49;13.30;99.90
1766;DHT22;880;52.452;8.656;2023-08-08T00:07:16;13.30;99.90
1766;DHT22;880;52.452;8.656;2023-08-08T00:09:43;13.30;99.90
1766;DHT22;880;52.452;8.656;2023-08-08T00:12:11;13.30;99.90
1766;DHT22;880;52.452;8.656;2023-08-08T00:14:38;13.30;99.90
1766;DHT22;880;52.452;8.656;2023-08-08T00:17:05;13.30;99.90
1766;DHT22;880;52.452;8.656;2023-08-08T00:19:32;13.20;99.90
1766;DHT22;880;52.452;8.656;2023-08-08T00:21:59;13.30;99.90
1766;DHT22;880;52.452;8.656;2023-08-08T00:24:27;13.30;99.90
1766;DHT22;880;52.452;8.656;2023-08-08T00:26:54;13.30;99.90
1766;DHT22;880;52.452;8.656;2023-08-08T00:29:21;13.30;99.90
1766;DHT22;880;52.452;8.656;2023-08-08T00:31:47;13.30;99.90
1766;DHT22;880;52.452;8.656;2023-08-08T00:34:15;13.40;99.90
1766;DHT22;880;52.452;8.656;2023-08-08T00:36:42;13.30;99.90
1766;DHT22;880;52.452;8.656;2023-08-08T00:39:10;13.40;99.90
1766;DHT22;880;52.452;8.656;2023-08-08T00:41:37;13.40;99.90
1766;DHT22;880;52.452;8.656;2023-08-08T00:44:04;13.40;99.90
1766;DHT22;880;52.452;8.656;2023-08-08T00:46:31;13.40;99.90
1766;DHT22;880;52.452;8.656;2023-08-08T00:48:58;13.50;99.90
1766;DHT22;880;52.452;8.656;2023-08-08T00:51:25;13.40;99.90
1766;DHT22;880;52.452;8.656;2023-08-08T00:53:54;13.40;99.90
1766;DHT22;880;52.452;8.656;2023-08-08T00:56:21;13.50;99.90
1766;DHT22;880;52.452;8.656;2023-08-08T00:58:48;13.50;99.90
1766;DHT22;880;52.452;8.656;2023-08-08T01:01:17;13.50;99.90
1766;DHT22;880;52.452;8.656;2023-08-08T01:03:48;13.50;99.90
1766;DHT22;880;52.452;8.656;2023-08-08T01:06:37;13.50;99.90
1766;DHT22;880;52.452;8.656;2023-08-08T01:09:16;13.60;99.90
1766;DHT22;880;52.452;8.656;2023-08-08T01:12:00;13.60;99.90
1766;DHT22;880;52.452;8.656;2023-08-08T01:14:32;13.60;99.90
1766;DHT22;880;52.452;8.656;2023-08-08T01:17:02;13.60;99.90
1766;DHT22;880;52.452;8.656;2023-08-08T01:19:30;13.60;99.90
1766;DHT22;880;52.452;8.656;2023-08-08T01:22:02;13.70;99.90
1766;DHT22;880;52.452;8.656;2023-08-08T01:24:32;13.70;99.90
1766;DHT22;880;52.452;8.656;2023-08-08T01:27:01;13.70;99.90
1766;DHT22;880;52.452;8.656;2023-08-08T01:29:28;13.80;99.90
1766;DHT22;880;52.452;8.656;2023-08-08T01:31:55;13.70;99.90
1766;DHT22;880;52.452;8.656;2023-08-08T01:34:23;13.80;99.90
1766;DHT22;880;52.452;8.656;2023-08-08T01:37:01;13.80;99.90
1766;DHT22;880;52.452;8.656;2023-08-08T01:39:32;13.80;99.90
1766;DHT22;880;52.452;8.656;2023-08-08T01:42:00;13.80;99.90
1766;DHT22;880;52.452;8.656;2023-08-08T01:44:29;13.80;99.90
1766;DHT22;880;52.452;8.656;2023-08-08T01:46:57;13.80;99.90
1766;DHT22;880;52.452;8.656;2023-08-08T01:49:24;13.70;99.90
1766;DHT22;880;52.452;8.656;2023-08-08T01:51:51;13.80;99.90
1766;DHT22;880;52.452;8.656;2023-08-08T01:54:19;13.80;99.90
1766;DHT22;880;52.452;8.656;2023-08-08T01:56:46;13.80;99.90
1766;DHT22;880;52.452;8.656;2023-08-08T01:59:13;13.80;99.90
1766;DHT22;880;52.452;8.656;2023-08-08T02:01:42;13.90;99.90
1766;DHT22;880;52.452;8.656;2023-08-08T02:04:09;13.90;99.90
1766;DHT22;880;52.452;8.656;2023-08-08T02:06:36;13.90;99.90
1766;DHT22;880;52.452;8.656;2023-08-08T02:09:03;13.80;99.90
1766;DHT22;880;52.452;8.656;2023-08-08T02:11:31;13.90;99.90
1766;DHT22;880;52.452;8.656;2023-08-08T02:13:58;13.80;99.90
1766;DHT22;880;52.452;8.656;2023-08-08T02:16:25;13.90;99.90
1766;DHT22;880;52.452;8.656;2023-08-08T02:18:52;13.90;99.90
1766;DHT22;880;52.452;8.656;2023-08-08T02:21:19;13.90;99.90
1766;DHT22;880;52.452;8.656;2023-08-08T02:23:48;13.90;99.90
1766;DHT22;880;52.452;8.656;2023-08-08T02:26:15;13.90;99.90
1766;DHT22;880;52.452;8.656;2023-08-08T02:28:42;13.90;99.90
1766;DHT22;880;52.452;8.656;2023-08-08T02:31:10;13.90;99.90
1766;DHT22;880;52.452;8.656;2023-08-08T02:33:37;13.90;99.90
1766;DHT22;880;52.452;8.656;2023-08-08T02:36:04;13.90;99.90
1766;DHT22;880;52.452;8.656;2023-08-08T02:38:31;13.90;99.90
1766;DHT22;880;52.452;8.656;2023-08-08T02:40:58;13.90;99.90
1766;DHT22;880;52.452;8.656;2023-08-08T02:43:25;13.90;99.90
1766;DHT22;880;52.452;8.656;2023-08-08T02:45:52;13.90;99.90
1766;DHT22;880;52.452;8.656;2023-08-08T02:48:19;13.90;99.90
1766;DHT22;880;52.452;8.656;2023-08-08T02:50:46;14.00;99.90
1766;DHT22;880;52.452;8.656;2023-08-08T02:53:14;14.00;99.90
1766;DHT22;880;52.452;8.656;2023-08-08T02:55:45;14.00;99.90
1766;DHT22;880;52.452;8.656;2023-08-08T02:58:12;14.00;99.90
1766;DHT22;880;52.452;8.656;2023-08-08T03:00:39;14.00;99.90
1766;DHT22;880;52.452;8.656;2023-08-08T03:03:09;14.00;99.90
1766;DHT22;880;52.452;8.656;2023-08-08T03:05:37;14.00;99.90
1766;DHT22;880;52.452;8.656;2023-08-08T03:08:04;14.00;99.90
1766;DHT22;880;52.452;8.656;2023-08-08T03:10:32;14.00;99.90
1766;DHT22;880;52.452;8.656;2023-08-08T03:12:59;14.00;99.90
1766;DHT22;880;52.452;8.656;2023-08-08T03:15:27;13.90;99.90
1766;DHT22;880;52.452;8.656;2023-08-08T03:17:54;14.00;99.90
1766;DHT22;880;52.452;8.656;2023-08-08T03:20:22;14.00;99.90
1766;DHT22;880;52.452;8.656;2023-08-08T03:22:50;14.00;99.90
1766;DHT22;880;52.452;8.656;2023-08-08T03:25:17;14.10;99.90
1766;DHT22;880;52.452;8.656;2023-08-08T03:27:44;14.00;99.90
1766;DHT22;880;52.452;8.656;2023-08-08T03:30:14;14.00;99.90
1766;DHT22;880;52.452;8.656;2023-08-08T03:32:42;14.10;99.90
1766;DHT22;880;52.452;8.656;2023-08-08T03:35:09;14.10;99.90
1766;DHT22;880;52.452;8.656;2023-08-08T03:37:39;14.00;99.90
1766;DHT22;880;52.452;8.656;2023-08-08T03:40:07;14.10;99.90
1766;DHT22;880;52.452;8.656;2023-08-08T03:42:34;14.10;99.90
1766;DHT22;880;52.452;8.656;2023-08-08T03:45:02;14.10;99.90
1766;DHT22;880;52.452;8.656;2023-08-08T03:47:29;14.10;99.90
1766;DHT22;880;52.452;8.656;2023-08-08T03:49:56;14.10;99.90
1766;DHT22;880;52.452;8.656;2023-08-08T03:52:24;14.10;99.90
1766;DHT22;880;52.452;8.656;2023-08-08T03:54:52;14.00;99.90
1766;DHT22;880;52.452;8.656;2023-08-08T03:57:21;14.10;99.90
1766;DHT22;880;52.452;8.656;2023-08-08T03:59:48;14.10;99.90
1766;DHT22;880;52.452;8.656;2023-08-08T04:02:15;14.10;99.90
1766;DHT22;880;52.452;8.656;2023-08-08T04:04:42;14.10;99.90
1766;DHT22;880;52.452;8.656;2023-08-08T04:07:09;14.10;99.90
1766;DHT22;880;52.452;8.656;2023-08-08T04:09:36;14.10;99.90
1766;DHT22;880;52.452;8.656;2023-08-08T04:12:04;14.00;99.90
1766;DHT22;880;52.452;8.656;2023-08-08T04:14:32;14.00;99.90
1766;DHT22;880;52.452;8.656;2023-08-08T04:16:59;14.10;99.90
1766;DHT22;880;52.452;8.656;2023-08-08T04:19:26;14.00;99.90
1766;DHT22;880;52.452;8.656;2023-08-08T04:21:53;14.10;99.90
1766;DHT22;880;52.452;8.656;2023-08-08T04:24:20;14.00;99.90
1766;DHT22;880;52.452;8.656;2023-08-08T04:26:47;14.10;99.90
1766;DHT22;880;52.452;8.656;2023-08-08T04:29:14;14.10;99.90
1766;DHT22;880;52.452;8.656;2023-08-08T04:31:41;14.00;99.90
1766;DHT22;880;52.452;8.656;2023-08-08T04:34:09;14.00;99.90
1766;DHT22;880;52.452;8.656;2023-08-08T04:36:36;14.10;99.90
1766;DHT22;880;52.452;8.656;2023-08-08T04:39:03;14.10;99.90
1766;DHT22;880;52.452;8.656;2023-08-08T04:41:30;14.10;99.90
1766;DHT22;880;52.452;8.656;2023-08-08T04:43:57;14.10;99.90
1766;DHT22;880;52.452;8.656;2023-08-08T04:46:24;14.20;99.90
1766;DHT22;880;52.452;8.656;2023-08-08T04:48:51;14.10;99.90
1766;DHT22;880;52.452;8.656;2023-08-08T04:51:19;14.20;99.90
1766;DHT22;880;52.452;8.656;2023-08-08T04:53:46;14.10;99.90
1766;DHT22;880;52.452;8.656;2023-08-08T04:56:13;14.10;99.90
1766;DHT22;880;52.452;8.656;2023-08-08T04:58:40;14.20;99.90
1766;DHT22;880;52.452;8.656;2023-08-08T05:01:07;14.20;99.90
1766;DHT22;880;52.452;8.656;2023-08-08T05:03:35;14.20;99.90
1766;DHT22;880;52.452;8.656;2023-08-08T05:06:03;14.30;99.90
1766;DHT22;880;52.452;8.656;2023-08-08T05:08:30;14.30;99.90
1766;DHT22;880;52.452;8.656;2023-08-08T05:10:57;14.40;99.90
1766;DHT22;880;52.452;8.656;2023-08-08T05:13:24;14.40;99.90
1766;DHT22;880;52.452;8.656;2023-08-08T05:15:51;14.40;99.90
1766;DHT22;880;52.452;8.656;2023-08-08T05:18:18;14.40;99.90
1766;DHT22;880;52.452;8.656;2023-08-08T05:20:45;14.40;99.90
1766;DHT22;880;52.452;8.656;2023-08-08T05:23:12;14.50;99.90
1766;DHT22;880;52.452;8.656;2023-08-08T05:25:40;14.50;99.90
1766;DHT22;880;52.452;8.656;2023-08-08T05:28:07;14.50;99.90
1766;DHT22;880;52.452;8.656;2023-08-08T05:30:34;14.40;99.90
1766;DHT22;880;52.452;8.656;2023-08-08T05:33:01;14.50;99.90
1766;DHT22;880;52.452;8.656;2023-08-08T05:35:28;14.50;99.90
1766;DHT22;880;52.452;8.656;2023-08-08T05:37:55;14.40;99.90
1766;DHT22;880;52.452;8.656;2023-08-08T05:40:22;14.50;99.90
1766;DHT22;880;52.452;8.656;2023-08-08T05:42:49;14.60;99.90
1766;DHT22;880;52.452;8.656;2023-08-08T05:45:16;14.70;99.90
1766;DHT22;880;52.452;8.656;2023-08-08T05:47:43;14.80;99.90
1766;DHT22;880;52.452;8.656;2023-08-08T05:50:10;14.90;99.90
1766;DHT22;880;52.452;8.656;2023-08-08T05:52:37;15.00;99.90
1766;DHT22;880;52.452;8.656;2023-08-08T05:55:05;15.10;99.90
1766;DHT22;880;52.452;8.656;2023-08-08T05:57:32;15.20;99.90
1766;DHT22;880;52.452;8.656;2023-08-08T05:59:59;15.30;99.90
1766;DHT22;880;52.452;8.656;2023-08-08T06:02:38;15.40;99.90
1766;DHT22;880;52.452;8.656;2023-08-08T06:05:05;15.50;99.90
1766;DHT22;880;52.452;8.656;2023-08-08T06:07:33;15.60;99.90
1766;DHT22;880;52.452;8.656;2023-08-08T06:10:00;15.60;99.90
1766;DHT22;880;52.452;8.656;2023-08-08T06:12:27;15.70;99.90
1766;DHT22;880;52.452;8.656;2023-08-08T06:14:54;15.70;99.90
1766;DHT22;880;52.452;8.656;2023-08-08T06:17:21;15.70;99.90
1766;DHT22;880;52.452;8.656;2023-08-08T06:19:50;15.80;99.90
1766;DHT22;880;52.452;8.656;2023-08-08T06:22:17;15.90;99.90
1766;DHT22;880;52.452;8.656;2023-08-08T06:24:46;15.90;99.90
1766;DHT22;880;52.452;8.656;2023-08-08T06:27:13;16.00;99.90
1766;DHT22;880;52.452;8.656;2023-08-08T06:29:40;16.00;99.90
1766;DHT22;880;52.452;8.656;2023-08-08T06:32:07;16.10;99.90
1766;DHT22;880;52.452;8.656;2023-08-08T06:34:34;16.10;99.90
1766;DHT22;880;52.452;8.656;2023-08-08T06:37:01;16.20;99.90
1766;DHT22;880;52.452;8.656;2023-08-08T06:39:28;16.40;99.90
1766;DHT22;880;52.452;8.656;2023-08-08T06:41:56;16.40;99.90
1766;DHT22;880;52.452;8.656;2023-08-08T06:44:41;16.40;99.90
1766;DHT22;880;52.452;8.656;2023-08-08T06:47:10;16.40;99.90
1766;DHT22;880;52.452;8.656;2023-08-08T06:49:38;16.50;99.90
1766;DHT22;880;52.452;8.656;2023-08-08T06:52:05;16.50;99.90
1766;DHT22;880;52.452;8.656;2023-08-08T06:54:33;16.50;99.90
1766;DHT22;880;52.452;8.656;2023-08-08T06:57:00;16.50;99.90
1766;DHT22;880;52.452;8.656;2023-08-08T06:59:29;16.60;99.90
1766;DHT22;880;52.452;8.656;2023-08-08T07:01:56;16.60;99.90
1766;DHT22;880;52.452;8.656;2023-08-08T07:04:23;16.70;99.90
1766;DHT22;880;52.452;8.656;2023-08-08T07:06:50;16.80;99.90
1766;DHT22;880;52.452;8.656;2023-08-08T07:09:17;16.70;99.90
1766;DHT22;880;52.452;8.656;2023-08-08T07:11:45;16.80;99.90
1766;DHT22;880;52.452;8.656;2023-08-08T07:14:12;16.90;99.90
1766;DHT22;880;52.452;8.656;2023-08-08T07:16:39;17.00;99.90
1766;DHT22;880;52.452;8.656;2023-08-08T07:19:06;17.10;99.90
1766;DHT22;880;52.452;8.656;2023-08-08T07:21:34;17.30;99.90
1766;DHT22;880;52.452;8.656;2023-08-08T07:24:01;17.30;99.90
1766;DHT22;880;52.452;8.656;2023-08-08T07:26:29;17.20;99.90
1766;DHT22;880;52.452;8.656;2023-08-08T07:28:56;17.30;99.90
1766;DHT22;880;52.452;8.656;2023-08-08T07:31:23;17.20;99.90
1766;DHT22;880;52.452;8.656;2023-08-08T07:33:50;17.20;99.90
1766;DHT22;880;52.452;8.656;2023-08-08T07:36:17;17.40;99.90
1766;DHT22;880;52.452;8.656;2023-08-08T07:38:44;17.40;99.90
1766;DHT22;880;52.452;8.656;2023-08-08T07:41:11;17.50;99.90
1766;DHT22;880;52.452;8.656;2023-08-08T07:43:38;17.50;99.90
1766;DHT22;880;52.452;8.656;2023-08-08T07:46:05;17.40;99.90
1766;DHT22;880;52.452;8.656;2023-08-08T07:48:32;17.50;99.90
1766;DHT22;880;52.452;8.656;2023-08-08T07:50:59;17.70;99.90
1766;DHT22;880;52.452;8.656;2023-08-08T07:53:26;17.90;99.90
1766;DHT22;880;52.452;8.656;2023-08-08T07:55:53;18.00;99.90
1766;DHT22;880;52.452;8.656;2023-08-08T07:58:20;18.10;99.90
1766;DHT22;880;52.452;8.656;2023-08-08T08:00:49;18.20;99.90
1766;DHT22;880;52.452;8.656;2023-08-08T08:03:19;18.30;99.90
1766;DHT22;880;52.452;8.656;2023-08-08T08:05:47;18.50;99.90
1766;DHT22;880;52.452;8.656;2023-08-08T08:08:14;18.20;99.90
1766;DHT22;880;52.452;8.656;2023-08-08T08:10:41;18.00;99.90
1766;DHT22;880;52.452;8.656;2023-08-08T08:13:08;17.90;99.90
1766;DHT22;880;52.452;8.656;2023-08-08T08:15:35;17.90;99.90
1766;DHT22;880;52.452;8.656;2023-08-08T08:18:02;17.90;99.90
1766;DHT22;880;52.452;8.656;2023-08-08T08:20:29;17.90;99.90
1766;DHT22;880;52.452;8.656;2023-08-08T08:22:56;17.90;99.90
1766;DHT22;880;52.452;8.656;2023-08-08T08:25:23;17.90;99.90
1766;DHT22;880;52.452;8.656;2023-08-08T08:27:50;18.00;99.90
1766;DHT22;880;52.452;8.656;2023-08-08T08:30:17;18.00;99.90
1766;DHT22;880;52.452;8.656;2023-08-08T08:32:45;17.90;99.90
1766;DHT22;880;52.452;8.656;2023-08-08T08:35:13;18.00;99.90
1766;DHT22;880;52.452;8.656;2023-08-08T08:37:40;18.00;99.90
1766;DHT22;880;52.452;8.656;2023-08-08T08:40:07;18.00;99.90
1766;DHT22;880;52.452;8.656;2023-08-08T08:42:35;17.90;99.90
1766;DHT22;880;52.452;8.656;2023-08-08T08:45:04;17.90;99.90
1766;DHT22;880;52.452;8.656;2023-08-08T08:47:33;17.80;99.90
1766;DHT22;880;52.452;8.656;2023-08-08T08:50:03;17.90;99.90
1766;DHT22;880;52.452;8.656;2023-08-08T08:52:31;17.90;99.90
1766;DHT22;880;52.452;8.656;2023-08-08T08:54:58;17.70;99.90
1766;DHT22;880;52.452;8.656;2023-08-08T08:57:25;17.90;99.90
1766;DHT22;880;52.452;8.656;2023-08-08T08:59:52;18.00;99.90
1766;DHT22;880;52.452;8.656;2023-08-08T09:02:19;18.20;99.90
1766;DHT22;880;52.452;8.656;2023-08-08T09:04:47;18.30;99.90
1766;DHT22;880;52.452;8.656;2023-08-08T09:07:17;18.40;99.90
1766;DHT22;880;52.452;8.656;2023-08-08T09:09:45;18.60;99.90
1766;DHT22;880;52.452;8.656;2023-08-08T09:12:13;18.90;99.90
1766;DHT22;880;52.452;8.656;2023-08-08T09:14:41;19.00;99.90
1766;DHT22;880;52.452;8.656;2023-08-08T09:17:12;19.10;99.90
1766;DHT22;880;52.452;8.656;2023-08-08T09:19:44;19.00;99.90
1766;DHT22;880;52.452;8.656;2023-08-08T09:22:13;18.90;99.90
1766;DHT22;880;52.452;8.656;2023-08-08T09:24:41;19.00;99.90
1766;DHT22;880;52.452;8.656;2023-08-08T09:27:09;19.00;99.90
1766;DHT22;880;52.452;8.656;2023-08-08T09:29:37;18.90;99.90
1766;DHT22;880;52.452;8.656;2023-08-08T09:32:05;18.70;99.90
1766;DHT22;880;52.452;8.656;2023-08-08T09:34:33;18.40;99.90
1766;DHT22;880;52.452;8.656;2023-08-08T09:37:01;18.30;99.90
1766;DHT22;880;52.452;8.656;2023-08-08T09:39:29;18.20;99.90
1766;DHT22;880;52.452;8.656;2023-08-08T09:42:01;18.40;99.90
1766;DHT22;880;52.452;8.656;2023-08-08T09:44:32;18.70;99.90
1766;DHT22;880;52.452;8.656;2023-08-08T09:47:01;18.90;99.90
1766;DHT22;880;52.452;8.656;2023-08-08T09:49:29;19.00;99.90
1766;DHT22;880;52.452;8.656;2023-08-08T09:52:02;19.10;99.90
1766;DHT22;880;52.452;8.656;2023-08-08T09:54:30;19.10;99.90
1766;DHT22;880;52.452;8.656;2023-08-08T09:56:57;19.30;99.90
1766;DHT22;880;52.452;8.656;2023-08-08T09:59:25;19.50;99.90
1766;DHT22;880;52.452;8.656;2023-08-08T10:01:53;19.40;99.90
1766;DHT22;880;52.452;8.656;2023-08-08T10:04:24;19.10;99.90
1766;DHT22;880;52.452;8.656;2023-08-08T10:06:51;19.40;99.90
1766;DHT22;880;52.452;8.656;2023-08-08T10:09:19;19.80;99.90
1766;DHT22;880;52.452;8.656;2023-08-08T10:11:47;19.80;99.90
1766;DHT22;880;52.452;8.656;2023-08-08T10:14:14;19.70;99.90
1766;DHT22;880;52.452;8.656;2023-08-08T10:16:42;19.60;99.90
1766;DHT22;880;52.452;8.656;2023-08-08T10:19:12;19.60;99.90
1766;DHT22;880;52.452;8.656;2023-08-08T10:21:44;19.60;99.90
1766;DHT22;880;52.452;8.656;2023-08-08T10:24:12;19.50;99.90
1766;DHT22;880;52.452;8.656;2023-08-08T10:26:59;19.30;99.90
1766;DHT22;880;52.452;8.656;2023-08-08T10:29:30;19.30;99.90
1766;DHT22;880;52.452;8.656;2023-08-08T10:32:04;19.30;99.90
1766;DHT22;880;52.452;8.656;2023-08-08T10:34:38;19.30;99.90
1766;DHT22;880;52.452;8.656;2023-08-08T10:37:25;19.20;99.90
1766;DHT22;880;52.452;8.656;2023-08-08T10:39:58;19.20;99.90
1766;DHT22;880;52.452;8.656;2023-08-08T10:42:27;19.20;99.90
1766;DHT22;880;52.452;8.656;2023-08-08T10:44:57;19.20;99.90
1766;DHT22;880;52.452;8.656;2023-08-08T10:47:37;19.20;99.90
1766;DHT22;880;52.452;8.656;2023-08-08T10:50:15;19.20;99.90
1766;DHT22;880;52.452;8.656;2023-08-08T10:55:24;19.20;99.90
1766;DHT22;880;52.452;8.656;2023-08-08T11:00:42;19.10;99.90
1766;DHT22;880;52.452;8.656;2023-08-08T11:03:10;19.10;99.90
1766;DHT22;880;52.452;8.656;2023-08-08T11:05:37;19.10;99.90
1766;DHT22;880;52.452;8.656;2023-08-08T11:08:06;19.00;99.90
1766;DHT22;880;52.452;8.656;2023-08-08T11:10:39;18.90;99.90
1766;DHT22;880;52.452;8.656;2023-08-08T11:13:08;18.90;99.90
1766;DHT22;880;52.452;8.656;2023-08-08T11:15:36;19.00;99.90
1766;DHT22;880;52.452;8.656;2023-08-08T11:18:05;19.00;99.90
1766;DHT22;880;52.452;8.656;2023-08-08T11:20:34;19.00;99.90
1766;DHT22;880;52.452;8.656;2023-08-08T11:23:02;19.00;99.90
1766;DHT22;880;52.452;8.656;2023-08-08T11:25:39;19.00;99.90
1766;DHT22;880;52.452;8.656;2023-08-08T11:28:08;19.10;99.90
1766;DHT22;880;52.452;8.656;2023-08-08T11:30:38;19.10;99.90
1766;DHT22;880;52.452;8.656;2023-08-08T11:33:07;19.00;99.90
1766;DHT22;880;52.452;8.656;2023-08-08T11:35:37;18.80;99.90
1766;DHT22;880;52.452;8.656;2023-08-08T11:38:05;18.70;99.90
1766;DHT22;880;52.452;8.656;2023-08-08T11:40:32;18.50;99.90
1766;DHT22;880;52.452;8.656;2023-08-08T11:43:00;18.40;99.90
1766;DHT22;880;52.452;8.656;2023-08-08T11:45:27;18.50;99.90
1766;DHT22;880;52.452;8.656;2023-08-08T11:47:55;18.60;99.90
1766;DHT22;880;52.452;8.656;2023-08-08T11:50:24;18.80;99.90
1766;DHT22;880;52.452;8.656;2023-08-08T11:52:54;18.80;99.90
1766;DHT22;880;52.452;8.656;2023-08-08T11:55:31;18.70;99.90
1766;DHT22;880;52.452;8.656;2023-08-08T11:57:58;18.80;99.90
1766;DHT22;880;52.452;8.656;2023-08-08T12:00:29;18.70;99.90
1766;DHT22;880;52.452;8.656;2023-08-08T12:02:58;18.70;99.90
1766;DHT22;880;52.452;8.656;2023-08-08T12:05:26;18.60;99.90
1766;DHT22;880;52.452;8.656;2023-08-08T12:07:53;18.10;99.90
1766;DHT22;880;52.452;8.656;2023-08-08T12:10:23;17.20;99.90
1766;DHT22;880;52.452;8.656;2023-08-08T12:12:56;16.60;99.90
1766;DHT22;880;52.452;8.656;2023-08-08T12:15:29;16.20;99.90
1766;DHT22;880;52.452;8.656;2023-08-08T12:17:58;16.00;99.90
1766;DHT22;880;52.452;8.656;2023-08-08T12:20:28;15.90;99.90
1766;DHT22;880;52.452;8.656;2023-08-08T12:22:59;15.90;99.90
1766;DHT22;880;52.452;8.656;2023-08-08T12:25:26;16.00;99.90
1766;DHT22;880;52.452;8.656;2023-08-08T12:27:54;16.10;99.90
1766;DHT22;880;52.452;8.656;2023-08-08T12:30:21;16.30;99.90
1766;DHT22;880;52.452;8.656;2023-08-08T12:32:48;16.60;99.90
1766;DHT22;880;52.452;8.656;2023-08-08T12:35:15;17.00;99.90
1766;DHT22;880;52.452;8.656;2023-08-08T12:37:43;17.40;99.90
1766;DHT22;880;52.452;8.656;2023-08-08T12:40:11;17.90;99.90
1766;DHT22;880;52.452;8.656;2023-08-08T12:42:39;18.40;99.90
1766;DHT22;880;52.452;8.656;2023-08-08T12:45:07;18.90;99.90
1766;DHT22;880;52.452;8.656;2023-08-08T12:47:34;19.10;99.90
1766;DHT22;880;52.452;8.656;2023-08-08T12:50:05;19.10;99.90
1766;DHT22;880;52.452;8.656;2023-08-08T12:52:32;18.70;99.90
1766;DHT22;880;52.452;8.656;2023-08-08T12:55:00;18.50;99.90
1766;DHT22;880;52.452;8.656;2023-08-08T12:57:27;18.40;99.90
1766;DHT22;880;52.452;8.656;2023-08-08T12:59:54;18.10;99.90
1766;DHT22;880;52.452;8.656;2023-08-08T13:02:21;17.60;99.90
1766;DHT22;880;52.452;8.656;2023-08-08T13:04:48;17.40;99.90
1766;DHT22;880;52.452;8.656;2023-08-08T13:07:15;17.20;99.90
1766;DHT22;880;52.452;8.656;2023-08-08T13:09:42;17.30;99.90
1766;DHT22;880;52.452;8.656;2023-08-08T13:12:09;17.60;99.90
1766;DHT22;880;52.452;8.656;2023-08-08T13:14:37;17.70;99.90
1766;DHT22;880;52.452;8.656;2023-08-08T13:17:04;18.10;99.90
1766;DHT22;880;52.452;8.656;2023-08-08T13:19:31;18.30;99.90
1766;DHT22;880;52.452;8.656;2023-08-08T13:21:58;18.40;99.90
1766;DHT22;880;52.452;8.656;2023-08-08T13:24:26;18.50;99.90
1766;DHT22;880;52.452;8.656;2023-08-08T13:26:53;18.60;99.90
1766;DHT22;880;52.452;8.656;2023-08-08T13:29:20;18.80;99.90
1766;DHT22;880;52.452;8.656;2023-08-08T13:31:47;19.00;99.90
1766;DHT22;880;52.452;8.656;2023-08-08T13:34:14;19.00;99.90
1766;DHT22;880;52.452;8.656;2023-08-08T13:36:41;19.10;99.90
1766;DHT22;880;52.452;8.656;2023-08-08T13:39:08;18.90;99.90
1766;DHT22;880;52.452;8.656;2023-08-08T13:41:36;18.70;99.90
1766;DHT22;880;52.452;8.656;2023-08-08T13:44:03;18.50;99.90
1766;DHT22;880;52.452;8.656;2023-08-08T13:46:30;18.40;99.90
1766;DHT22;880;52.452;8.656;2023-08-08T13:48:57;18.20;99.90
1766;DHT22;880;52.452;8.656;2023-08-08T13:51:24;17.80;99.90
1766;DHT22;880;52.452;8.656;2023-08-08T13:53:51;17.30;99.90
1766;DHT22;880;52.452;8.656;2023-08-08T13:56:18;16.80;99.90
1766;DHT22;880;52.452;8.656;2023-08-08T13:58:45;16.50;99.90
1766;DHT22;880;52.452;8.656;2023-08-08T14:01:12;16.40;99.90
1766;DHT22;880;52.452;8.656;2023-08-08T14:03:40;16.40;99.90
1766;DHT22;880;52.452;8.656;2023-08-08T14:06:07;16.40;99.90
1766;DHT22;880;52.452;8.656;2023-08-08T14:08:34;16.40;99.90
1766;DHT22;880;52.452;8.656;2023-08-08T14:11:01;16.30;99.90
1766;DHT22;880;52.452;8.656;2023-08-08T14:13:28;16.20;99.90
1766;DHT22;880;52.452;8.656;2023-08-08T14:15:56;16.20;99.90
1766;DHT22;880;52.452;8.656;2023-08-08T14:18:23;16.20;99.90
1766;DHT22;880;52.452;8.656;2023-08-08T14:20:51;16.30;99.90
1766;DHT22;880;52.452;8.656;2023-08-08T14:23:18;16.30;99.90
1766;DHT22;880;52.452;8.656;2023-08-08T14:25:46;16.40;99.90
1766;DHT22;880;52.452;8.656;2023-08-08T14:28:13;16.50;99.90
1766;DHT22;880;52.452;8.656;2023-08-08T14:30:40;16.60;99.90
1766;DHT22;880;52.452;8.656;2023-08-08T14:33:07;16.70;99.90
1766;DHT22;880;52.452;8.656;2023-08-08T14:35:34;16.80;99.90
1766;DHT22;880;52.452;8.656;2023-08-08T14:38:01;16.80;99.90
1766;DHT22;880;52.452;8.656;2023-08-08T14:40:28;16.90;99.90
1766;DHT22;880;52.452;8.656;2023-08-08T14:42:55;16.90;99.90
1766;DHT22;880;52.452;8.656;2023-08-08T14:45:22;16.90;99.90
1766;DHT22;880;52.452;8.656;2023-08-08T14:47:50;16.90;99.90
1766;DHT22;880;52.452;8.656;2023-08-08T14:50:17;16.90;99.90
1766;DHT22;880;52.452;8.656;2023-08-08T14:52:45;17.00;99.90
1766;DHT22;880;52.452;8.656;2023-08-08T14:55:12;17.10;99.90
1766;DHT22;880;52.452;8.656;2023-08-08T14:57:39;17.30;99.90
1766;DHT22;880;52.452;8.656;2023-08-08T15:00:07;17.30;99.90
1766;DHT22;880;52.452;8.656;2023-08-08T15:02:39;17.40;99.90
1766;DHT22;880;52.452;8.656;2023-08-08T15:05:07;17.50;99.90
1766;DHT22;880;52.452;8.656;2023-08-08T15:07:35;17.50;99.90
1766;DHT22;880;52.452;8.656;2023-08-08T15:10:02;17.50;99.90
1766;DHT22;880;52.452;8.656;2023-08-08T15:12:29;17.50;99.90
1766;DHT22;880;52.452;8.656;2023-08-08T15:14:56;17.60;99.90
1766;DHT22;880;52.452;8.656;2023-08-08T15:17:23;17.80;99.90
1766;DHT22;880;52.452;8.656;2023-08-08T15:19:51;17.90;99.90
1766;DHT22;880;52.452;8.656;2023-08-08T15:22:18;18.00;99.90
1766;DHT22;880;52.452;8.656;2023-08-08T15:24:45;18.00;99.90
1766;DHT22;880;52.452;8.656;2023-08-08T15:27:12;18.10;99.90
1766;DHT22;880;52.452;8.656;2023-08-08T15:29:39;18.30;99.90
1766;DHT22;880;52.452;8.656;2023-08-08T15:32:06;18.50;99.90
1766;DHT22;880;52.452;8.656;2023-08-08T15:34:33;18.70;99.90
1766;DHT22;880;52.452;8.656;2023-08-08T15:37:00;18.70;99.90
1766;DHT22;880;52.452;8.656;2023-08-08T15:39:28;18.70;99.90
1766;DHT22;880;52.452;8.656;2023-08-08T15:41:55;18.70;99.90
1766;DHT22;880;52.452;8.656;2023-08-08T15:44:22;18.60;99.90
1766;DHT22;880;52.452;8.656;2023-08-08T15:46:50;18.50;99.90
1766;DHT22;880;52.452;8.656;2023-08-08T15:49:17;18.40;99.90
1766;DHT22;880;52.452;8.656;2023-08-08T15:51:45;18.30;99.90
1766;DHT22;880;52.452;8.656;2023-08-08T15:54:13;18.30;99.90
1766;DHT22;880;52.452;8.656;2023-08-08T15:56:40;18.30;99.90
1766;DHT22;880;52.452;8.656;2023-08-08T15:59:07;18.20;99.90
1766;DHT22;880;52.452;8.656;2023-08-08T16:01:34;18.00;99.90
1766;DHT22;880;52.452;8.656;2023-08-08T16:04:03;17.90;99.90
1766;DHT22;880;52.452;8.656;2023-08-08T16:06:30;17.70;99.90
1766;DHT22;880;52.452;8.656;2023-08-08T16:08:57;17.70;99.90
1766;DHT22;880;52.452;8.656;2023-08-08T16:11:24;17.40;99.90
1766;DHT22;880;52.452;8.656;2023-08-08T16:13:51;17.10;99.90
1766;DHT22;880;52.452;8.656;2023-08-08T16:16:18;16.90;99.90
1766;DHT22;880;52.452;8.656;2023-08-08T16:18:46;16.80;99.90
1766;DHT22;880;52.452;8.656;2023-08-08T16:21:13;16.70;99.90
1766;DHT22;880;52.452;8.656;2023-08-08T16:23:41;16.60;99.90
1766;DHT22;880;52.452;8.656;2023-08-08T16:26:08;16.60;99.90
1766;DHT22;880;52.452;8.656;2023-08-08T16:28:35;16.70;99.90